createdAt,value
2019-06-08T00:02:26.532Z,2.03
2019-06-08T00:04:56.460Z,1.45
2019-06-08T00:07:26.344Z,1.77
2019-06-08T00:09:55.875Z,1.52
2019-06-08T00:12:26.290Z,1.75
2019-06-08T00:14:56.116Z,1.80
2019-06-08T00:17:37.750Z,1.77
2019-06-08T00:19:57.588Z,1.80
2019-06-08T00:22:27.563Z,1.55
2019-06-08T00:24:57.494Z,2.00
2019-06-08T00:27:27.380Z,2.07
2019-06-08T00:29:57.231Z,1.82
2019-06-08T00:32:26.756Z,1.70
2019-06-08T00:34:56.672Z,2.17
2019-06-08T00:37:26.572Z,1.90
2019-06-08T00:39:56.101Z,1.23
2019-06-08T00:42:26.005Z,1.50
2019-06-08T00:44:57.072Z,2.08
2019-06-08T00:47:28.092Z,1.57
2019-06-08T00:49:58.184Z,1.98
2019-06-08T00:52:27.711Z,2.05
2019-06-08T00:54:57.227Z,1.60
2019-06-08T00:57:26.753Z,1.80
2019-06-08T00:59:56.623Z,1.77
2019-06-08T01:02:28.591Z,1.98
2019-06-08T01:04:58.590Z,1.98
2019-06-08T01:07:28.119Z,1.62
2019-06-08T01:09:58.317Z,1.65
2019-06-08T01:12:29.010Z,1.75
2019-06-08T01:14:58.965Z,1.50
2019-06-08T01:17:29.362Z,1.90
2019-06-08T01:19:59.344Z,2.00
2019-06-08T01:22:30.063Z,2.20
2019-06-08T01:24:59.975Z,2.12
2019-06-08T01:27:30.163Z,1.98
2019-06-08T01:30:00.298Z,2.08
2019-06-08T01:32:30.596Z,1.00
2019-06-08T01:35:00.460Z,2.02
2019-06-08T01:37:31.217Z,2.22
2019-06-08T01:40:01.092Z,2.22
2019-06-08T01:42:31.859Z,2.05
2019-06-08T01:47:30.464Z,2.30
2019-06-08T01:50:00.339Z,2.17
2019-06-08T01:52:30.942Z,1.85
2019-06-08T01:55:00.591Z,2.25
2019-06-08T01:57:31.578Z,2.40
2019-06-08T02:00:28.778Z,2.65
2019-06-08T02:02:34.104Z,2.10
2019-06-08T02:05:05.558Z,2.52
2019-06-08T02:07:35.479Z,2.30
2019-06-08T02:10:09.370Z,2.40
2019-06-08T02:12:39.064Z,2.55
2019-06-08T02:15:09.353Z,2.17
2019-06-08T02:17:39.234Z,2.22
2019-06-08T02:20:10.734Z,2.22
2019-06-08T02:22:41.039Z,2.35
2019-06-08T02:25:11.133Z,1.77
2019-06-08T02:27:40.949Z,2.12
2019-06-08T02:30:13.082Z,2.65
2019-06-08T02:32:42.837Z,1.95
2019-06-08T02:35:13.255Z,1.98
2019-06-08T02:37:43.065Z,2.05
2019-06-08T02:40:14.105Z,2.27
2019-06-08T02:42:43.708Z,2.02
2019-06-08T02:45:13.856Z,2.20
2019-06-08T02:47:43.527Z,2.22
2019-06-08T02:50:15.972Z,2.12
2019-06-08T02:52:48.348Z,2.25
2019-06-08T02:55:18.188Z,2.15
2019-06-08T02:57:49.749Z,2.08
2019-06-08T03:00:19.728Z,2.10
2019-06-08T03:02:51.591Z,1.90
2019-06-08T03:05:21.116Z,2.50
2019-06-08T03:07:52.680Z,2.20
2019-06-08T03:10:22.203Z,2.25
2019-06-08T03:12:54.007Z,2.35
2019-06-08T03:15:33.842Z,2.25
2019-06-08T03:18:02.736Z,2.17
2019-06-08T03:23:03.418Z,2.00
2019-06-08T03:25:42.041Z,2.47
2019-06-08T03:28:04.788Z,2.15
2019-06-08T03:30:38.921Z,2.10
2019-06-08T03:33:06.636Z,2.12
2019-06-08T03:35:46.575Z,2.40
2019-06-08T03:38:08.133Z,2.30
2019-06-08T03:40:38.758Z,2.90
2019-06-08T03:43:09.589Z,2.47
2019-06-08T03:45:40.754Z,1.60
2019-06-08T03:48:11.076Z,2.30
2019-06-08T03:50:42.035Z,2.50
2019-06-08T03:53:12.529Z,2.35
2019-06-08T03:55:44.958Z,2.50
2019-06-08T03:58:14.412Z,2.77
2019-06-08T04:00:44.707Z,2.42
2019-06-08T04:03:14.634Z,2.80
2019-06-08T04:05:46.431Z,2.50
2019-06-08T04:08:16.120Z,2.30
2019-06-08T04:10:46.852Z,2.10
2019-06-08T04:15:46.912Z,2.35
2019-06-08T04:18:16.994Z,2.30
2019-06-08T04:20:48.674Z,2.45
2019-06-08T04:23:18.107Z,2.87
2019-06-08T04:25:48.052Z,2.15
2019-06-08T04:28:17.902Z,2.60
2019-06-08T04:30:49.889Z,2.75
2019-06-08T04:33:19.356Z,2.12
2019-06-08T04:35:50.643Z,2.58
2019-06-08T04:38:20.424Z,2.22
2019-06-08T04:40:50.347Z,2.62
2019-06-08T04:43:20.224Z,2.67
2019-06-08T04:45:49.970Z,2.45
2019-06-08T04:48:20.057Z,2.62
2019-06-08T04:50:49.939Z,2.33
2019-06-08T04:53:19.537Z,2.55
2019-06-08T04:55:51.355Z,2.35
2019-06-08T04:58:21.012Z,2.40
2019-06-08T05:00:51.163Z,2.58
2019-06-08T05:03:20.785Z,1.90
2019-06-08T05:05:50.441Z,2.27
2019-06-08T05:08:20.204Z,2.17
2019-06-08T05:10:49.865Z,2.27
2019-06-08T05:13:19.676Z,2.22
2019-06-08T05:15:50.238Z,2.20
2019-06-08T05:20:51.489Z,2.00
2019-06-08T05:23:21.033Z,1.95
2019-06-08T05:25:50.996Z,1.82
2019-06-08T05:28:20.905Z,2.33
2019-06-08T05:30:50.951Z,2.23
2019-06-08T05:33:20.764Z,2.00
2019-06-08T05:35:50.625Z,2.25
2019-06-08T05:38:20.539Z,2.17
2019-06-08T05:40:50.420Z,2.00
2019-06-08T05:43:20.399Z,1.82
2019-06-08T05:45:50.241Z,2.13
2019-06-08T05:48:20.183Z,2.60
2019-06-08T05:51:00.528Z,2.33
2019-06-08T05:53:21.641Z,2.27
2019-06-08T05:55:51.536Z,2.15
2019-06-08T05:58:21.480Z,1.97
2019-06-08T06:00:51.477Z,2.07
2019-06-08T06:03:21.299Z,2.02
2019-06-08T06:05:51.341Z,2.12
2019-06-08T06:08:21.129Z,1.45
2019-06-08T06:10:51.423Z,2.40
2019-06-08T06:13:21.407Z,2.37
2019-06-08T06:15:51.669Z,2.50
2019-06-08T06:18:21.612Z,2.40
2019-06-08T06:20:51.611Z,1.80
2019-06-08T06:23:21.438Z,2.20
2019-06-08T06:25:51.766Z,2.30
2019-06-08T06:28:21.687Z,2.20
2019-06-08T06:30:52.282Z,2.62
2019-06-08T06:33:21.922Z,2.35
2019-06-08T06:35:52.173Z,2.62
2019-06-08T06:38:22.350Z,2.65
2019-06-08T06:40:52.271Z,2.45
2019-06-08T06:43:22.161Z,2.23
2019-06-08T06:45:52.210Z,2.20
2019-06-08T06:48:23.550Z,1.92
2019-06-08T06:50:53.772Z,2.30
2019-06-08T06:53:23.683Z,2.30
2019-06-08T06:55:53.417Z,1.90
2019-06-08T06:58:23.397Z,2.25
2019-06-08T07:00:53.722Z,1.90
2019-06-08T07:03:24.660Z,1.92
2019-06-08T07:05:54.476Z,1.80
2019-06-08T07:08:24.145Z,2.13
2019-06-08T07:10:55.248Z,2.12
2019-06-08T07:13:25.141Z,2.35
2019-06-08T07:15:58.114Z,2.12
2019-06-08T07:18:26.642Z,2.05
2019-06-08T07:20:56.574Z,2.20
2019-06-08T07:23:26.079Z,2.30
2019-06-08T07:25:55.961Z,1.65
2019-06-08T07:28:25.903Z,1.97
2019-06-08T07:30:55.944Z,2.17
2019-06-08T07:33:27.227Z,2.17
2019-06-08T07:35:56.878Z,1.90
2019-06-08T07:38:26.461Z,2.17
2019-06-08T07:40:59.598Z,1.85
2019-06-08T07:43:27.797Z,1.80
2019-06-08T07:45:58.451Z,2.10
2019-06-08T07:48:28.128Z,2.12
2019-06-08T07:50:58.407Z,1.87
2019-06-08T07:53:28.012Z,2.00
2019-06-08T07:55:57.569Z,2.30
2019-06-08T07:58:27.284Z,2.50
2019-06-08T08:01:03.990Z,1.60
2019-06-08T08:03:28.444Z,1.87
2019-06-08T08:05:58.603Z,2.52
2019-06-08T08:08:28.649Z,2.08
2019-06-08T08:11:00.459Z,1.83
2019-06-08T08:13:30.052Z,1.90
2019-06-08T08:16:00.726Z,2.27
2019-06-08T08:21:09.116Z,2.15
2019-06-08T08:23:31.227Z,1.90
2019-06-08T08:26:01.864Z,2.08
2019-06-08T08:28:31.616Z,2.02
2019-06-08T08:31:01.894Z,2.00
2019-06-08T08:33:31.992Z,2.05
2019-06-08T08:36:02.108Z,2.17
2019-06-08T08:38:31.785Z,2.10
2019-06-08T08:41:07.269Z,2.08
2019-06-08T08:43:33.135Z,2.10
2019-06-08T08:46:03.047Z,2.40
2019-06-08T08:48:32.562Z,2.00
2019-06-08T08:51:03.722Z,2.30
2019-06-08T08:53:33.587Z,2.35
2019-06-08T08:56:03.121Z,2.22
2019-06-08T08:58:32.629Z,2.20
2019-06-08T09:01:03.776Z,2.08
2019-06-08T09:03:33.962Z,2.00
2019-06-08T09:06:04.280Z,1.85
2019-06-08T09:08:34.152Z,2.10
2019-06-08T09:11:04.226Z,2.17
2019-06-08T09:13:33.845Z,2.08
2019-06-08T09:16:04.537Z,1.70
2019-06-08T09:18:34.525Z,1.65
2019-06-08T09:21:18.689Z,2.00
2019-06-08T09:23:48.734Z,2.10
2019-06-08T09:26:18.572Z,1.70
2019-06-08T09:28:48.137Z,1.85
2019-06-08T09:31:18.669Z,1.92
2019-06-08T09:34:04.044Z,2.30
2019-06-08T09:36:19.650Z,2.22
2019-06-08T09:38:49.392Z,2.20
2019-06-08T09:41:19.341Z,2.02
2019-06-08T09:43:49.244Z,1.87
2019-06-08T09:46:19.533Z,2.13
2019-06-08T09:48:49.546Z,2.25
2019-06-08T09:51:19.349Z,2.10
2019-06-08T09:53:49.457Z,2.40
2019-06-08T09:56:19.203Z,1.95
2019-06-08T09:58:51.355Z,2.15
2019-06-08T10:01:20.222Z,1.90
2019-06-08T10:03:49.747Z,2.00
2019-06-08T10:06:19.751Z,2.02
2019-06-08T10:08:49.605Z,2.47
2019-06-08T10:11:19.636Z,2.77
2019-06-08T10:13:49.493Z,2.10
2019-06-08T10:16:19.023Z,2.00
2019-06-08T10:18:51.462Z,2.08
2019-06-08T10:21:21.056Z,2.17
2019-06-08T10:26:20.480Z,1.95
2019-06-08T10:28:51.277Z,2.00
2019-06-08T10:31:35.531Z,2.52
2019-06-08T10:33:52.220Z,1.90
2019-06-08T10:36:21.842Z,2.12
2019-06-08T10:38:52.663Z,1.92
2019-06-08T10:43:51.670Z,2.08
2019-06-08T10:46:21.672Z,2.33
2019-06-08T10:48:51.539Z,2.07
2019-06-08T10:51:21.299Z,2.37
2019-06-08T10:53:53.093Z,2.30
2019-06-08T10:56:22.472Z,2.20
2019-06-08T10:58:52.056Z,2.30
2019-06-08T11:01:21.880Z,2.17
2019-06-08T11:03:51.438Z,2.05
2019-06-08T11:06:21.457Z,3.00
2019-06-08T11:08:51.213Z,3.30
2019-06-08T11:11:20.747Z,2.77
2019-06-08T11:13:50.601Z,1.90
2019-06-08T11:16:20.552Z,1.40
2019-06-08T11:18:51.169Z,1.70
2019-06-08T11:24:05.647Z,1.40
2019-06-08T11:26:24.407Z,1.10
2019-06-08T11:28:53.155Z,1.70
2019-06-08T11:31:23.081Z,1.60
2019-06-08T11:33:52.985Z,1.60
2019-06-08T11:36:22.836Z,1.90
2019-06-08T11:38:52.763Z,1.77
2019-06-08T11:41:22.994Z,2.20
2019-06-08T11:43:52.759Z,2.50
2019-06-08T11:46:22.411Z,2.10
2019-06-08T11:48:52.009Z,2.12
2019-06-08T11:51:22.017Z,2.30
2019-06-08T11:53:52.582Z,2.77
2019-06-08T11:56:23.241Z,2.60
2019-06-08T11:58:54.668Z,2.83
2019-06-08T12:01:24.463Z,2.55
2019-06-08T12:03:53.970Z,2.52
2019-06-08T12:06:23.716Z,2.62
2019-06-08T12:08:53.448Z,1.10
2019-06-08T12:11:24.108Z,1.42
2019-06-08T12:13:53.656Z,1.15
2019-06-08T12:16:23.183Z,1.35
2019-06-08T12:18:53.845Z,1.25
2019-06-08T12:21:23.462Z,1.45
2019-06-08T12:23:53.121Z,1.67
2019-06-08T12:26:22.824Z,1.62
2019-06-08T12:28:52.695Z,2.12
2019-06-08T12:31:22.988Z,1.97
2019-06-08T12:33:52.899Z,1.80
2019-06-08T12:36:22.451Z,2.12
2019-06-08T12:38:52.352Z,2.33
2019-06-08T12:41:22.307Z,2.45
2019-06-08T12:43:52.226Z,3.00
2019-06-08T12:46:22.095Z,2.87
2019-06-08T12:48:52.078Z,2.70
2019-06-08T12:51:21.895Z,2.60
2019-06-08T12:53:51.863Z,2.80
2019-06-08T12:56:23.957Z,2.20
2019-06-08T12:58:53.291Z,2.22
2019-06-08T13:01:24.507Z,2.25
2019-06-08T13:03:54.260Z,3.22
2019-06-08T13:06:23.851Z,2.40
2019-06-08T13:08:53.379Z,2.42
2019-06-08T13:11:22.981Z,1.95
2019-06-08T13:13:52.799Z,1.72
2019-06-08T13:16:24.487Z,1.80
2019-06-08T13:18:53.959Z,1.90
2019-06-08T13:21:34.058Z,1.70
2019-06-08T13:23:55.009Z,1.55
2019-06-08T13:26:27.956Z,1.57
2019-06-08T13:28:58.312Z,1.77
2019-06-08T13:31:28.721Z,1.60
2019-06-08T13:33:58.787Z,1.55
2019-06-08T13:36:29.778Z,1.55
2019-06-08T13:38:59.412Z,1.60
2019-06-08T13:41:29.901Z,1.52
2019-06-08T13:46:28.912Z,1.80
2019-06-08T13:48:58.751Z,1.80
2019-06-08T13:51:28.867Z,1.70
2019-06-08T13:53:58.609Z,1.60
2019-06-08T13:56:28.890Z,1.60
2019-06-08T13:58:58.805Z,1.35
2019-06-08T14:01:30.877Z,1.97
2019-06-08T14:03:59.942Z,1.37
2019-06-08T14:06:30.112Z,1.72
2019-06-08T14:08:59.835Z,1.70
2019-06-08T14:11:29.583Z,1.75
2019-06-08T14:14:01.244Z,1.60
2019-06-08T14:16:31.047Z,1.72
2019-06-08T14:19:00.586Z,1.40
2019-06-08T14:21:38.753Z,1.90
2019-06-08T14:24:01.995Z,1.52
2019-06-08T14:26:31.509Z,1.60
2019-06-08T14:29:01.819Z,1.52
2019-06-08T14:31:32.179Z,1.82
2019-06-08T14:34:02.111Z,1.90
2019-06-08T14:36:31.928Z,2.20
2019-06-08T14:39:02.451Z,1.52
2019-06-08T14:44:01.284Z,1.42
2019-06-08T14:46:30.983Z,1.50
2019-06-08T14:49:00.694Z,1.32
2019-06-08T14:51:48.019Z,1.30
2019-06-08T14:54:24.613Z,1.10
2019-06-08T14:56:50.178Z,1.20
2019-06-08T14:59:21.630Z,1.27
2019-06-08T15:01:51.587Z,1.20
2019-06-08T15:04:24.946Z,1.37
2019-06-08T15:06:52.698Z,1.40
2019-06-08T15:09:27.624Z,1.17
2019-06-08T15:11:58.204Z,1.35
2019-06-08T15:14:33.637Z,1.55
2019-06-08T15:17:00.896Z,1.30
2019-06-08T15:19:32.482Z,1.57
2019-06-08T15:22:02.004Z,1.45
2019-06-08T15:24:32.948Z,1.47
2019-06-08T15:27:02.701Z,1.40
2019-06-08T15:29:32.799Z,1.67
2019-06-08T15:32:02.599Z,1.45
2019-06-08T15:34:33.244Z,2.55
2019-06-08T15:39:34.116Z,1.72
2019-06-08T15:42:04.248Z,1.52
2019-06-08T15:44:33.991Z,1.97
2019-06-08T15:47:03.786Z,1.50
2019-06-08T15:49:33.971Z,1.92
2019-06-08T15:52:04.473Z,1.80
2019-06-08T15:54:37.634Z,2.00
2019-06-08T15:57:05.453Z,1.30
2019-06-08T15:59:38.772Z,1.92
2019-06-08T16:02:06.539Z,1.80
2019-06-08T16:04:36.325Z,2.08
2019-06-08T16:07:06.467Z,2.22
2019-06-08T16:09:36.552Z,2.30
2019-06-08T16:12:06.487Z,2.23
2019-06-08T16:14:36.387Z,2.10
2019-06-08T16:17:06.319Z,1.90
2019-06-08T16:19:36.232Z,2.40
2019-06-08T16:22:06.344Z,1.80
2019-06-08T16:24:36.316Z,2.05
2019-06-08T16:27:06.020Z,1.90
2019-06-08T16:29:35.578Z,2.10
2019-06-08T16:32:05.113Z,1.62
2019-06-08T16:34:35.619Z,1.25
2019-06-08T16:37:05.855Z,2.15
2019-06-08T16:39:35.523Z,1.30
2019-06-08T16:42:05.209Z,1.50
2019-06-08T16:44:34.871Z,2.77
2019-06-08T16:47:04.944Z,1.62
2019-06-08T16:49:35.387Z,1.77
2019-06-08T16:52:05.271Z,1.67
2019-06-08T16:54:35.059Z,1.60
2019-06-08T16:57:09.917Z,1.60
2019-06-08T16:59:36.680Z,2.02
2019-06-08T17:02:06.472Z,1.70
2019-06-08T17:04:37.194Z,1.50
2019-06-08T17:07:06.796Z,1.85
2019-06-08T17:09:37.741Z,1.50
2019-06-08T17:12:07.746Z,1.70
2019-06-08T17:14:38.364Z,1.42
2019-06-08T17:17:08.346Z,1.60
2019-06-08T17:19:38.529Z,1.50
2019-06-08T17:22:08.180Z,1.50
2019-06-08T17:24:38.919Z,1.70
2019-06-08T17:29:38.945Z,1.42
2019-06-08T17:32:08.749Z,1.60
2019-06-08T17:34:40.147Z,1.90
2019-06-08T17:37:09.859Z,1.55
2019-06-08T17:39:40.147Z,1.67
2019-06-08T17:42:10.067Z,2.52
2019-06-08T17:44:40.430Z,1.75
2019-06-08T17:47:10.289Z,1.57
2019-06-08T17:49:40.742Z,1.80
2019-06-08T17:52:10.384Z,1.47
2019-06-08T17:54:41.340Z,2.00
2019-06-08T17:59:41.591Z,1.60
2019-06-08T18:02:17.200Z,1.65
2019-06-08T18:04:44.347Z,1.75
2019-06-08T18:07:16.990Z,1.92
2019-06-08T18:09:48.337Z,1.57
2019-06-08T18:12:18.347Z,2.12
2019-06-08T18:14:49.303Z,1.60
2019-06-08T18:17:19.173Z,1.72
2019-06-08T18:19:49.733Z,2.17
2019-06-08T18:22:19.818Z,1.92
2019-06-08T18:24:49.684Z,1.80
2019-06-08T18:27:19.573Z,1.80
2019-06-08T18:29:49.150Z,1.90
2019-06-08T18:32:18.990Z,1.95
2019-06-08T18:34:48.612Z,1.90
2019-06-08T18:37:18.417Z,2.05
2019-06-08T18:39:49.436Z,1.72
2019-06-08T18:42:20.667Z,1.98
2019-06-08T18:47:19.321Z,1.60
2019-06-08T18:49:48.942Z,2.10
2019-06-08T18:52:18.727Z,2.20
2019-06-08T18:54:49.503Z,2.15
2019-06-08T18:57:19.789Z,2.20
2019-06-08T18:59:53.044Z,2.00
2019-06-08T19:02:20.871Z,1.90
2019-06-08T19:04:50.745Z,2.00
2019-06-08T19:07:20.518Z,1.87
2019-06-08T19:09:50.323Z,2.10
2019-06-08T19:12:19.933Z,2.15
2019-06-08T19:14:52.133Z,2.33
2019-06-08T19:17:21.254Z,2.08
2019-06-08T19:19:52.381Z,2.15
2019-06-08T19:22:23.515Z,2.05
2019-06-08T19:24:53.545Z,2.20
2019-06-08T19:27:23.442Z,2.00
2019-06-08T19:29:53.328Z,2.73
2019-06-08T19:32:23.300Z,2.30
2019-06-08T19:34:54.652Z,2.20
2019-06-08T19:37:24.739Z,1.95
2019-06-08T19:39:54.587Z,2.37
2019-06-08T19:42:37.050Z,2.20
2019-06-08T19:45:05.092Z,2.10
2019-06-08T19:47:27.677Z,2.40
2019-06-08T19:49:57.891Z,2.40
2019-06-08T19:52:27.849Z,3.02
2019-06-08T19:54:58.176Z,2.65
2019-06-08T19:57:28.381Z,2.70
2019-06-08T20:00:00.426Z,2.40
2019-06-08T20:02:29.878Z,2.30
2019-06-08T20:04:59.519Z,2.20
2019-06-08T20:07:29.047Z,2.37
2019-06-08T20:09:58.930Z,2.35
2019-06-08T20:12:29.150Z,2.20
2019-06-08T20:14:58.755Z,2.17
2019-06-08T20:17:28.687Z,2.20
2019-06-08T20:19:58.496Z,2.47
2019-06-08T20:22:28.258Z,2.73
2019-06-08T20:24:57.989Z,2.47
2019-06-08T20:27:27.880Z,2.47
2019-06-08T20:29:58.263Z,2.47
2019-06-08T20:32:28.405Z,2.40
2019-06-08T20:34:58.017Z,2.33
2019-06-08T20:37:28.382Z,2.75
2019-06-08T20:40:09.727Z,2.65
2019-06-08T20:42:31.002Z,2.40
2019-06-08T20:45:00.972Z,3.10
2019-06-08T20:47:30.858Z,2.60
2019-06-08T20:50:00.450Z,3.27
2019-06-08T20:52:30.002Z,2.70
2019-06-08T20:55:00.220Z,2.60
2019-06-08T20:57:29.747Z,2.58
2019-06-08T20:59:59.322Z,2.83
2019-06-08T21:02:29.204Z,2.50
2019-06-08T21:04:59.627Z,2.80
2019-06-08T21:07:29.272Z,2.85
2019-06-08T21:09:59.406Z,2.85
2019-06-08T21:12:29.013Z,2.47
2019-06-08T21:14:58.764Z,2.95
2019-06-08T21:17:28.780Z,3.55
2019-06-08T21:19:59.268Z,2.30
2019-06-08T21:22:28.839Z,3.02
2019-06-08T21:25:00.041Z,2.83
2019-06-08T21:27:30.495Z,2.70
2019-06-08T21:30:08.469Z,2.62
2019-06-08T21:32:31.236Z,3.00
2019-06-08T21:35:01.002Z,2.70
2019-06-08T21:37:30.540Z,2.83
2019-06-08T21:40:03.960Z,3.10
2019-06-08T21:42:31.969Z,2.95
2019-06-08T21:45:02.938Z,2.80
2019-06-08T21:47:32.779Z,2.72
2019-06-08T21:50:02.487Z,2.83
2019-06-08T21:52:32.434Z,2.60
2019-06-08T21:55:02.365Z,2.80
2019-06-08T21:57:32.251Z,2.53
2019-06-08T22:00:21.940Z,2.60
2019-06-08T22:02:33.309Z,3.10
2019-06-08T22:05:04.832Z,3.27
2019-06-08T22:07:34.785Z,2.75
2019-06-08T22:10:07.525Z,2.90
2019-06-08T22:12:40.186Z,3.62
2019-06-08T22:15:09.000Z,3.27
2019-06-08T22:17:38.567Z,3.45
2019-06-08T22:20:09.132Z,3.17
2019-06-08T22:22:38.776Z,3.25
2019-06-08T22:25:08.671Z,3.30
2019-06-08T22:27:38.413Z,3.67
2019-06-08T22:30:11.626Z,3.80
2019-06-08T22:32:39.839Z,3.17
2019-06-08T22:35:09.904Z,3.67
2019-06-08T22:37:39.504Z,4.42
2019-06-08T22:40:10.160Z,4.22
2019-06-08T22:42:39.736Z,3.55
2019-06-08T22:45:09.597Z,5.95
2019-06-08T22:47:39.152Z,5.70
2019-06-08T22:50:09.204Z,4.90
2019-06-08T22:52:38.983Z,3.90
2019-06-08T22:55:11.016Z,3.60
2019-06-08T22:57:40.048Z,3.67
2019-06-08T23:00:16.713Z,3.92
2019-06-08T23:02:42.336Z,4.00
2019-06-08T23:05:11.870Z,3.40
2019-06-08T23:07:42.611Z,3.08
2019-06-08T23:10:12.546Z,3.22
2019-06-08T23:12:42.404Z,3.75
2019-06-08T23:15:12.158Z,3.52
2019-06-08T23:17:41.840Z,14.68
2019-06-08T23:20:11.621Z,30.40
2019-06-08T23:22:42.525Z,42.78
2019-06-08T23:27:41.078Z,30.25
2019-06-08T23:30:12.331Z,24.43
2019-06-08T23:32:42.250Z,16.75
2019-06-08T23:35:12.480Z,14.80
2019-06-08T23:37:42.027Z,47.62
2019-06-08T23:40:12.235Z,47.78
2019-06-08T23:42:41.907Z,41.28
2019-06-08T23:45:11.859Z,30.85
2019-06-08T23:47:41.732Z,17.23
2019-06-08T23:50:11.968Z,9.63
2019-06-08T23:52:41.563Z,5.47
2019-06-08T23:55:12.162Z,4.90
2019-06-08T23:57:41.779Z,5.03
